createdAt,value
2019-01-27T00:01:51.542Z,4.40
2019-01-27T00:04:22.661Z,4.70
2019-01-27T00:06:55.482Z,4.30
2019-01-27T00:09:23.894Z,5.30
2019-01-27T00:12:00.545Z,4.30
2019-01-27T00:14:28.950Z,4.33
2019-01-27T00:17:00.877Z,4.27
2019-01-27T00:19:32.466Z,4.27
2019-01-27T00:22:07.572Z,4.30
2019-01-27T00:24:39.021Z,4.30
2019-01-27T00:27:08.387Z,4.30
2019-01-27T00:29:42.529Z,4.13
2019-01-27T00:32:15.157Z,4.60
2019-01-27T00:34:49.534Z,4.90
2019-01-27T00:37:19.593Z,5.10
2019-01-27T00:39:56.101Z,5.00
2019-01-27T00:42:24.533Z,4.40
2019-01-27T00:44:56.089Z,4.40
2019-01-27T00:47:26.400Z,4.00
2019-01-27T00:50:03.473Z,4.13
2019-01-27T00:52:37.989Z,4.10
2019-01-27T00:55:31.986Z,4.23
2019-01-27T00:57:51.845Z,4.63
2019-01-27T01:00:30.617Z,4.33
2019-01-27T01:02:59.347Z,5.30
2019-01-27T01:05:28.807Z,5.10
2019-01-27T01:07:57.261Z,4.57
2019-01-27T01:10:26.054Z,6.07
2019-01-27T01:12:55.573Z,4.90
2019-01-27T01:15:38.549Z,4.87
2019-01-27T01:18:07.318Z,4.70
2019-01-27T01:20:47.400Z,4.57
2019-01-27T01:23:24.153Z,5.30
2019-01-27T01:25:58.154Z,6.00
2019-01-27T01:28:29.513Z,5.90
2019-01-27T01:31:01.033Z,5.90
2019-01-27T01:33:36.521Z,6.03
2019-01-27T01:36:07.153Z,5.43
2019-01-27T01:38:37.126Z,5.90
2019-01-27T01:41:22.865Z,5.53
2019-01-27T01:43:51.602Z,6.17
2019-01-27T01:46:23.972Z,6.13
2019-01-27T01:48:55.137Z,6.03
2019-01-27T01:51:23.802Z,5.83
2019-01-27T01:54:08.102Z,6.13
2019-01-27T01:56:36.516Z,6.10
2019-01-27T01:59:05.010Z,6.67
2019-01-27T02:01:35.074Z,6.47
2019-01-27T02:04:08.515Z,6.07
2019-01-27T02:06:51.502Z,6.20
2019-01-27T02:09:21.865Z,6.43
2019-01-27T02:11:58.222Z,6.53
2019-01-27T02:14:29.584Z,6.07
2019-01-27T02:16:59.625Z,6.17
2019-01-27T02:19:32.199Z,6.63
2019-01-27T02:22:03.866Z,5.87
2019-01-27T02:24:36.271Z,6.07
2019-01-27T02:27:13.592Z,6.43
2019-01-27T02:29:47.690Z,7.00
2019-01-27T02:32:27.767Z,6.70
2019-01-27T02:34:56.190Z,5.90
2019-01-27T02:37:29.333Z,6.40
2019-01-27T02:39:59.209Z,6.33
2019-01-27T02:42:29.287Z,6.77
2019-01-27T02:44:59.363Z,6.83
2019-01-27T02:47:29.412Z,6.30
2019-01-27T02:50:02.126Z,6.43
2019-01-27T02:52:37.141Z,6.67
2019-01-27T02:55:11.758Z,6.40
2019-01-27T02:57:43.043Z,6.87
2019-01-27T03:00:26.640Z,6.87
2019-01-27T03:02:55.055Z,7.07
2019-01-27T03:05:30.841Z,7.07
2019-01-27T03:08:20.318Z,7.97
2019-01-27T03:10:51.289Z,7.70
2019-01-27T03:13:31.874Z,7.10
2019-01-27T03:16:00.300Z,7.53
2019-01-27T03:18:31.634Z,7.37
2019-01-27T03:21:03.282Z,7.37
2019-01-27T03:23:37.217Z,7.10
2019-01-27T03:26:13.068Z,7.70
2019-01-27T03:28:44.682Z,7.20
2019-01-27T03:31:19.991Z,8.03
2019-01-27T03:33:51.061Z,8.60
2019-01-27T03:36:21.123Z,8.03
2019-01-27T03:38:54.177Z,7.80
2019-01-27T03:41:19.674Z,7.20
2019-01-27T03:43:51.129Z,6.30
2019-01-27T03:46:21.573Z,6.33
2019-01-27T03:48:58.605Z,7.03
2019-01-27T03:51:35.633Z,5.63
2019-01-27T03:54:04.882Z,5.90
2019-01-27T03:56:39.232Z,6.23
2019-01-27T03:59:16.655Z,6.13
2019-01-27T04:01:45.082Z,6.60
2019-01-27T04:04:13.485Z,6.47
2019-01-27T04:06:43.254Z,6.80
2019-01-27T04:09:24.979Z,7.93
2019-01-27T04:11:56.527Z,8.27
2019-01-27T04:14:39.248Z,8.73
2019-01-27T04:17:12.989Z,9.53
2019-01-27T04:19:44.141Z,9.43
2019-01-27T04:22:16.443Z,8.57
2019-01-27T04:24:46.729Z,7.97
2019-01-27T04:27:15.217Z,8.30
2019-01-27T04:29:46.138Z,9.57
2019-01-27T04:32:27.033Z,8.73
2019-01-27T04:34:57.969Z,10.00
2019-01-27T04:37:32.303Z,9.77
2019-01-27T04:40:05.357Z,10.00
2019-01-27T04:42:36.702Z,10.20
2019-01-27T04:45:10.511Z,10.23
2019-01-27T04:47:41.499Z,9.40
2019-01-27T04:50:12.658Z,9.20
2019-01-27T04:52:44.106Z,8.47
2019-01-27T04:55:15.071Z,8.60
2019-01-27T04:57:43.558Z,8.77
2019-01-27T05:00:34.936Z,10.30
2019-01-27T05:03:14.418Z,10.07
2019-01-27T05:05:42.828Z,9.60
2019-01-27T05:08:13.978Z,10.43
2019-01-27T05:10:44.025Z,10.57
2019-01-27T05:13:18.203Z,10.70
2019-01-27T05:15:54.282Z,10.80
2019-01-27T05:18:27.071Z,11.27
2019-01-27T05:20:55.558Z,11.70
2019-01-27T05:23:23.977Z,11.17
2019-01-27T05:26:01.361Z,12.97
2019-01-27T05:28:38.233Z,12.10
2019-01-27T05:31:12.561Z,11.57
2019-01-27T05:33:42.618Z,12.33
2019-01-27T05:36:13.989Z,11.73
2019-01-27T05:38:49.825Z,12.33
2019-01-27T05:41:19.877Z,17.70
2019-01-27T05:43:52.942Z,10.30
2019-01-27T05:46:24.057Z,12.10
2019-01-27T05:48:54.607Z,10.83
2019-01-27T05:51:24.661Z,8.53
2019-01-27T05:53:53.082Z,11.80
2019-01-27T05:56:24.645Z,11.57
2019-01-27T05:58:59.174Z,15.20
2019-01-27T06:01:36.202Z,8.90
2019-01-27T06:04:14.002Z,9.83
2019-01-27T06:06:42.425Z,11.20
2019-01-27T06:09:10.849Z,11.53
2019-01-27T06:11:42.225Z,10.93
2019-01-27T06:14:16.576Z,10.73
2019-01-27T06:16:44.998Z,11.23
2019-01-27T06:19:15.064Z,11.10
2019-01-27T06:21:55.166Z,11.00
2019-01-27T06:24:29.582Z,10.60
2019-01-27T06:27:02.587Z,10.60
2019-01-27T06:29:32.645Z,11.23
2019-01-27T06:32:02.126Z,10.90
2019-01-27T06:34:33.470Z,11.23
2019-01-27T06:37:01.898Z,10.93
2019-01-27T06:39:30.319Z,11.20
2019-01-27T06:42:05.751Z,12.10
2019-01-27T06:44:37.110Z,10.90
2019-01-27T06:47:07.517Z,11.37
2019-01-27T06:49:35.936Z,11.07
2019-01-27T06:52:10.631Z,11.27
2019-01-27T06:54:46.966Z,10.70
2019-01-27T06:57:18.405Z,10.23
2019-01-27T06:59:51.371Z,11.10
2019-01-27T07:02:29.520Z,11.40
2019-01-27T07:04:58.889Z,12.33
2019-01-27T07:07:33.378Z,12.30
2019-01-27T07:10:03.449Z,11.17
2019-01-27T07:12:36.474Z,10.07
2019-01-27T07:15:18.077Z,10.90
2019-01-27T07:18:07.597Z,8.50
2019-01-27T07:20:40.414Z,9.70
2019-01-27T07:23:16.072Z,8.90
2019-01-27T07:26:02.650Z,8.17
2019-01-27T07:28:52.502Z,7.87
2019-01-27T07:31:22.582Z,8.23
2019-01-27T07:34:01.144Z,8.23
2019-01-27T07:36:50.332Z,8.10
2019-01-27T07:39:26.393Z,7.93
2019-01-27T07:41:59.162Z,7.33
2019-01-27T07:44:31.757Z,7.33
2019-01-27T07:47:04.640Z,7.00
2019-01-27T07:49:53.046Z,5.97
2019-01-27T07:52:33.790Z,6.17
2019-01-27T07:55:20.717Z,5.73
2019-01-27T07:58:07.295Z,4.97
2019-01-27T08:00:40.326Z,4.93
2019-01-27T08:03:16.158Z,4.67
2019-01-27T08:05:49.662Z,4.90
2019-01-27T08:08:19.713Z,4.30
2019-01-27T08:10:52.446Z,3.90
2019-01-27T08:13:22.511Z,4.37
2019-01-27T08:16:07.424Z,3.77
2019-01-27T08:18:55.579Z,3.70
2019-01-27T08:21:25.898Z,3.80
2019-01-27T08:23:58.867Z,4.23
2019-01-27T08:26:37.702Z,4.50
2019-01-27T08:29:10.488Z,4.17
2019-01-27T08:32:27.486Z,3.93
2019-01-27T08:34:37.601Z,3.57
2019-01-27T08:37:07.709Z,3.73
2019-01-27T08:39:40.693Z,7.10
2019-01-27T08:42:29.754Z,4.13
2019-01-27T08:45:09.162Z,2.87
2019-01-27T08:50:19.213Z,3.83
2019-01-27T08:52:48.009Z,3.27
2019-01-27T08:55:40.311Z,5.17
2019-01-27T08:58:14.754Z,4.50
2019-01-27T09:00:50.986Z,6.03
2019-01-27T09:03:35.785Z,5.70
2019-01-27T09:06:06.214Z,8.27
2019-01-27T09:08:39.490Z,5.00
2019-01-27T09:11:29.089Z,3.70
2019-01-27T09:13:59.494Z,6.93
2019-01-27T09:16:30.026Z,2.60
2019-01-27T09:19:03.118Z,3.07
2019-01-27T09:21:53.105Z,3.77
2019-01-27T09:24:23.614Z,2.60
2019-01-27T09:26:59.596Z,2.90
2019-01-27T09:29:30.041Z,4.03
2019-01-27T09:32:00.350Z,3.67
2019-01-27T09:34:30.760Z,3.27
2019-01-27T09:37:06.835Z,3.40
2019-01-27T09:39:39.581Z,3.90
2019-01-27T09:42:21.614Z,5.00
2019-01-27T09:44:51.732Z,5.10
2019-01-27T09:47:24.676Z,4.37
2019-01-27T09:50:07.321Z,4.83
2019-01-27T09:52:49.233Z,4.50
2019-01-27T09:55:25.066Z,6.63
2019-01-27T09:58:01.106Z,4.80
2019-01-27T10:00:37.460Z,5.20
2019-01-27T10:03:07.692Z,5.67
2019-01-27T10:05:37.745Z,6.07
2019-01-27T10:08:07.883Z,5.50
2019-01-27T10:10:37.929Z,5.43
2019-01-27T10:13:20.161Z,5.77
2019-01-27T10:16:02.029Z,5.57
2019-01-27T10:18:34.872Z,6.10
2019-01-27T10:21:09.238Z,8.10
2019-01-27T10:23:44.432Z,6.80
2019-01-27T10:26:16.441Z,7.43
2019-01-27T10:29:05.585Z,9.30
2019-01-27T10:31:38.461Z,6.20
2019-01-27T10:34:26.250Z,5.20
2019-01-27T10:37:11.794Z,8.30
2019-01-27T10:39:39.681Z,6.33
2019-01-27T10:42:24.710Z,7.30
2019-01-27T10:45:17.676Z,7.83
2019-01-27T10:48:05.653Z,7.37
2019-01-27T10:50:35.718Z,6.40
2019-01-27T10:53:14.713Z,4.90
2019-01-27T10:56:06.618Z,4.60
2019-01-27T10:58:54.449Z,4.90
2019-01-27T11:01:45.449Z,4.43
2019-01-27T11:04:30.427Z,4.57
2019-01-27T11:07:06.394Z,5.43
2019-01-27T11:09:36.442Z,4.63
2019-01-27T11:12:09.424Z,5.10
2019-01-27T11:14:56.130Z,4.90
2019-01-27T11:17:41.361Z,4.80
2019-01-27T11:20:18.921Z,5.30
2019-01-27T11:22:57.962Z,5.43
2019-01-27T11:25:36.307Z,5.50
2019-01-27T11:28:14.993Z,5.00
2019-01-27T11:30:47.755Z,5.50
2019-01-27T11:33:20.531Z,5.27
2019-01-27T11:35:53.421Z,5.00
2019-01-27T11:38:47.623Z,5.23
2019-01-27T11:41:22.523Z,5.20
2019-01-27T11:43:55.900Z,4.70
2019-01-27T11:46:28.738Z,5.53
2019-01-27T11:49:01.465Z,5.50
2019-01-27T11:51:34.404Z,5.27
2019-01-27T11:54:06.060Z,4.67
2019-01-27T11:56:43.202Z,5.13
2019-01-27T11:59:18.165Z,5.53
2019-01-27T12:01:46.973Z,4.47
2019-01-27T12:04:15.955Z,5.60
2019-01-27T12:06:46.227Z,5.00
2019-01-27T12:09:18.446Z,5.87
2019-01-27T12:11:47.342Z,5.30
2019-01-27T12:14:20.573Z,6.90
2019-01-27T12:16:54.299Z,5.80
2019-01-27T12:19:23.834Z,4.93
2019-01-27T12:22:00.039Z,5.80
2019-01-27T12:24:33.515Z,6.53
2019-01-27T12:27:02.596Z,4.40
2019-01-27T12:29:31.410Z,5.83
2019-01-27T12:32:02.570Z,6.60
2019-01-27T12:34:34.785Z,6.17
2019-01-27T12:37:06.739Z,6.40
2019-01-27T12:39:38.780Z,4.80
2019-01-27T12:42:09.528Z,5.00
2019-01-27T12:44:41.106Z,4.93
2019-01-27T12:47:14.502Z,4.50
2019-01-27T12:49:43.478Z,5.33
2019-01-27T12:52:28.978Z,5.00
2019-01-27T12:55:03.494Z,4.80
2019-01-27T12:57:32.561Z,5.47
2019-01-27T13:00:04.618Z,5.10
2019-01-27T13:02:42.958Z,5.10
2019-01-27T13:05:15.017Z,5.07
2019-01-27T13:07:46.975Z,6.13
2019-01-27T13:10:17.299Z,5.33
2019-01-27T13:12:51.950Z,4.93
2019-01-27T13:15:27.247Z,4.50
2019-01-27T13:17:59.618Z,3.90
2019-01-27T13:20:40.709Z,4.47
2019-01-27T13:23:10.110Z,4.40
2019-01-27T13:26:07.342Z,4.80
2019-01-27T13:28:36.443Z,4.30
2019-01-27T13:31:05.656Z,4.20
2019-01-27T13:33:59.007Z,5.17
2019-01-27T13:36:54.740Z,4.50
2019-01-27T13:39:33.037Z,3.90
2019-01-27T13:42:07.923Z,5.70
2019-01-27T13:44:43.594Z,3.90
2019-01-27T13:47:12.721Z,4.50
2019-01-27T13:49:41.886Z,4.00
2019-01-27T13:52:10.772Z,4.00
2019-01-27T13:54:41.168Z,4.17
2019-01-27T13:57:10.229Z,3.87
2019-01-27T13:59:40.692Z,4.60
2019-01-27T14:02:11.553Z,3.93
2019-01-27T14:04:40.658Z,4.63
2019-01-27T14:07:21.682Z,3.40
2019-01-27T14:10:02.631Z,4.47
2019-01-27T14:12:34.542Z,4.30
2019-01-27T14:15:13.264Z,5.20
2019-01-27T14:17:45.570Z,4.40
2019-01-27T14:20:17.197Z,4.30
2019-01-27T14:22:57.482Z,3.90
2019-01-27T14:25:28.811Z,3.80
2019-01-27T14:27:59.670Z,3.93
2019-01-27T14:30:39.953Z,4.60
2019-01-27T14:33:09.174Z,5.37
2019-01-27T14:35:39.349Z,4.83
2019-01-27T14:38:11.490Z,5.67
2019-01-27T14:40:40.893Z,6.13
2019-01-27T14:43:09.962Z,9.30
2019-01-27T14:45:43.085Z,7.17
2019-01-27T14:48:12.044Z,6.97
2019-01-27T14:50:44.013Z,6.33
2019-01-27T14:53:13.218Z,7.23
2019-01-27T14:55:45.169Z,5.97
2019-01-27T14:58:13.862Z,4.80
2019-01-27T15:00:50.913Z,4.67
2019-01-27T15:03:20.010Z,4.93
2019-01-27T15:05:51.672Z,6.37
2019-01-27T15:08:30.706Z,5.80
2019-01-27T15:11:06.692Z,5.70
2019-01-27T15:13:51.181Z,6.17
2019-01-27T15:16:23.801Z,7.17
2019-01-27T15:19:01.806Z,7.33
2019-01-27T15:21:32.251Z,7.13
2019-01-27T15:24:07.132Z,6.67
2019-01-27T15:26:36.024Z,5.63
2019-01-27T15:29:05.826Z,5.27
2019-01-27T15:31:35.434Z,5.50
2019-01-27T15:34:07.337Z,4.80
2019-01-27T15:36:36.695Z,5.60
2019-01-27T15:39:12.530Z,5.80
2019-01-27T15:41:41.749Z,5.07
2019-01-27T15:44:13.493Z,6.20
2019-01-27T15:46:47.019Z,5.23
2019-01-27T15:49:15.902Z,5.90
2019-01-27T15:51:45.077Z,5.50
2019-01-27T15:54:17.163Z,7.87
2019-01-27T15:56:46.138Z,6.00
2019-01-27T15:59:15.013Z,6.70
2019-01-27T16:01:44.424Z,5.80
2019-01-27T16:04:13.309Z,6.50
2019-01-27T16:06:50.917Z,5.80
2019-01-27T16:09:19.994Z,7.53
2019-01-27T16:11:49.417Z,8.33
2019-01-27T16:14:19.622Z,7.10
2019-01-27T16:16:48.530Z,9.57
2019-01-27T16:19:17.306Z,8.23
2019-01-27T16:21:46.382Z,7.03
2019-01-27T16:24:36.656Z,6.73
2019-01-27T16:27:11.866Z,7.13
2019-01-27T16:29:42.297Z,7.87
2019-01-27T16:32:12.534Z,8.73
2019-01-27T16:34:41.741Z,7.60
2019-01-27T16:37:11.395Z,7.97
2019-01-27T16:40:08.152Z,7.33
2019-01-27T16:42:51.734Z,9.07
2019-01-27T16:45:18.700Z,7.93
2019-01-27T16:47:51.077Z,7.93
2019-01-27T16:50:23.529Z,6.87
2019-01-27T16:53:16.152Z,7.57
2019-01-27T16:55:42.098Z,6.73
2019-01-27T16:58:10.978Z,8.47
2019-01-27T17:00:46.433Z,8.27
2019-01-27T17:03:20.898Z,6.63
2019-01-27T17:05:52.532Z,6.97
2019-01-27T17:08:30.419Z,6.87
2019-01-27T17:10:59.726Z,6.53
2019-01-27T17:13:28.477Z,6.67
2019-01-27T17:16:01.114Z,6.33
2019-01-27T17:18:34.265Z,7.40
2019-01-27T17:21:09.523Z,6.93
2019-01-27T17:23:56.219Z,6.83
2019-01-27T17:26:28.669Z,7.27
2019-01-27T17:28:58.003Z,7.03
2019-01-27T17:31:28.483Z,6.97
2019-01-27T17:34:01.939Z,7.27
2019-01-27T17:36:31.079Z,7.57
2019-01-27T17:39:00.361Z,7.53
2019-01-27T17:41:29.462Z,7.17
2019-01-27T17:44:15.550Z,8.50
2019-01-27T17:46:46.743Z,8.50
2019-01-27T17:49:25.467Z,8.50
2019-01-27T17:51:57.957Z,8.13
2019-01-27T17:54:27.832Z,8.53
2019-01-27T17:56:58.555Z,8.23
2019-01-27T17:59:30.246Z,8.37
2019-01-27T18:02:07.890Z,8.30
2019-01-27T18:04:38.185Z,10.10
2019-01-27T18:07:11.745Z,8.53
2019-01-27T18:09:44.737Z,8.13
2019-01-27T18:12:30.222Z,8.87
2019-01-27T18:15:06.707Z,8.20
2019-01-27T18:17:42.265Z,9.23
2019-01-27T18:20:15.793Z,8.77
2019-01-27T18:23:02.031Z,9.83
2019-01-27T18:25:34.648Z,10.23
2019-01-27T18:28:03.992Z,10.43
2019-01-27T18:30:33.452Z,11.33
2019-01-27T18:33:08.798Z,10.10
2019-01-27T18:35:38.381Z,10.63
2019-01-27T18:38:07.914Z,10.20
2019-01-27T18:40:37.181Z,9.77
2019-01-27T18:43:13.089Z,10.33
2019-01-27T18:45:42.988Z,9.90
2019-01-27T18:48:15.474Z,10.67
2019-01-27T18:50:48.051Z,10.50
2019-01-27T18:53:18.370Z,10.93
2019-01-27T18:55:54.131Z,10.90
2019-01-27T18:58:27.015Z,9.77
2019-01-27T19:01:09.823Z,10.83
2019-01-27T19:03:41.215Z,10.17
2019-01-27T19:06:26.233Z,9.60
2019-01-27T19:08:59.018Z,9.10
2019-01-27T19:11:38.298Z,9.37
2019-01-27T19:14:24.950Z,9.97
2019-01-27T19:17:12.526Z,9.27
2019-01-27T19:19:58.992Z,9.20
2019-01-27T19:22:44.670Z,8.43
2019-01-27T19:25:35.989Z,9.33
2019-01-27T19:28:14.686Z,8.40
2019-01-27T19:30:50.558Z,9.63
2019-01-27T19:33:27.017Z,9.07
2019-01-27T19:36:09.639Z,10.50
2019-01-27T19:38:39.945Z,10.73
2019-01-27T19:41:16.393Z,10.13
2019-01-27T19:44:06.057Z,10.87
2019-01-27T19:46:48.034Z,9.23
2019-01-27T19:49:33.586Z,9.37
2019-01-27T19:52:03.994Z,9.17
2019-01-27T19:54:46.422Z,8.97
2019-01-27T19:57:23.048Z,9.10
2019-01-27T19:59:53.353Z,9.47
2019-01-27T20:02:36.299Z,8.90
2019-01-27T20:05:09.493Z,8.70
2019-01-27T20:07:49.236Z,9.53
2019-01-27T20:10:28.658Z,8.03
2019-01-27T20:13:08.467Z,9.67
2019-01-27T20:15:39.672Z,8.80
2019-01-27T20:18:16.337Z,8.67
2019-01-27T20:20:52.501Z,7.70
2019-01-27T20:23:22.919Z,8.20
2019-01-27T20:25:59.087Z,8.00
2019-01-27T20:28:45.377Z,8.27
2019-01-27T20:31:27.575Z,8.00
2019-01-27T20:34:15.780Z,7.83
2019-01-27T20:36:58.477Z,7.37
2019-01-27T20:39:47.041Z,8.27
2019-01-27T20:42:35.630Z,8.00
2019-01-27T20:45:07.689Z,7.77
2019-01-27T20:47:50.406Z,7.90
2019-01-27T20:50:20.713Z,7.23
2019-01-27T20:52:53.808Z,7.97
2019-01-27T20:55:41.617Z,7.33
2019-01-27T20:58:15.037Z,8.13
2019-01-27T21:00:45.253Z,8.10
2019-01-27T21:03:35.150Z,7.50
2019-01-27T21:06:07.249Z,7.87
2019-01-27T21:08:46.531Z,8.50
2019-01-27T21:11:32.874Z,8.37
2019-01-27T21:14:08.978Z,8.00
2019-01-27T21:16:45.258Z,7.83
2019-01-27T21:19:18.550Z,7.83
2019-01-27T21:21:57.228Z,7.80
2019-01-27T21:24:31.170Z,6.87
2019-01-27T21:27:06.770Z,7.10
2019-01-27T21:29:42.870Z,6.30
2019-01-27T21:32:12.458Z,6.77
2019-01-27T21:34:51.080Z,6.10
2019-01-27T21:37:21.789Z,6.47
2019-01-27T21:40:02.587Z,6.70
2019-01-27T21:42:38.702Z,6.63
2019-01-27T21:45:16.261Z,6.50
2019-01-27T21:47:46.471Z,5.87
2019-01-27T21:50:19.859Z,5.80
2019-01-27T21:52:55.706Z,5.53
2019-01-27T21:55:30.290Z,5.77
2019-01-27T21:58:10.645Z,5.80
2019-01-27T22:00:46.886Z,6.30
2019-01-27T22:03:19.606Z,5.27
2019-01-27T22:05:51.143Z,5.17
2019-01-27T22:08:19.839Z,5.37
2019-01-27T22:10:57.306Z,5.93
2019-01-27T22:13:37.250Z,5.37
2019-01-27T22:16:08.566Z,5.67
2019-01-27T22:18:36.990Z,5.63
2019-01-27T22:21:07.938Z,4.87
2019-01-27T22:23:43.450Z,5.23
2019-01-27T22:26:18.118Z,5.37
2019-01-27T22:28:49.775Z,4.90
2019-01-27T22:31:23.947Z,5.13
2019-01-27T22:33:54.015Z,4.83
2019-01-27T22:36:22.770Z,4.53
2019-01-27T22:38:51.189Z,4.60
2019-01-27T22:41:26.985Z,4.57
2019-01-27T22:44:04.845Z,4.10
2019-01-27T22:46:34.899Z,4.40
2019-01-27T22:49:03.318Z,3.43
2019-01-27T22:51:34.688Z,3.70
2019-01-27T22:54:03.107Z,3.53
2019-01-27T22:56:34.271Z,3.47
2019-01-27T22:59:05.678Z,3.17
2019-01-27T23:01:34.572Z,3.70
2019-01-27T23:04:06.194Z,3.07
2019-01-27T23:06:40.358Z,3.40
2019-01-27T23:09:16.313Z,3.33
2019-01-27T23:11:51.759Z,3.10
2019-01-27T23:14:23.018Z,2.90
2019-01-27T23:16:51.443Z,2.70
2019-01-27T23:19:21.814Z,3.00
2019-01-27T23:21:58.912Z,2.70
2019-01-27T23:24:33.266Z,3.00
2019-01-27T23:27:02.910Z,2.43
2019-01-27T23:29:34.447Z,2.00
2019-01-27T23:32:02.870Z,2.30
2019-01-27T23:34:31.290Z,1.90
2019-01-27T23:37:02.830Z,1.97
2019-01-27T23:39:31.233Z,2.00
2019-01-27T23:42:05.311Z,1.93
2019-01-27T23:44:41.136Z,2.00
2019-01-27T23:47:19.898Z,1.50
2019-01-27T23:49:50.770Z,1.40
2019-01-27T23:52:21.841Z,1.50
2019-01-27T23:54:59.029Z,1.30
2019-01-27T23:57:28.174Z,1.23
2019-01-27T23:59:59.430Z,1.23
